Time;durP1;ratioP1;P1;durP2;ratioP2;P2;SDS_P1;SDS_P2;PMS_P1;PMS_P2;Temp;Humidity;BMP_temperature;BMP_pressure;BME280_temperature;BME280_humidity;BME280_pressure;Samples;Min_cycle;Max_cycle;Signal;HPM_P1;HPM_P2
2022/01/03 00:01:34;;;;;;;11.98;1.60;;;9.10;99.90;;;;;;4977117;28;20057;-79
2022/01/03 00:04:00;;;;;;;7.95;1.50;;;9.20;99.90;;;;;;4959799;28;20053;-79
2022/01/03 00:06:26;;;;;;;9.02;1.73;;;9.20;99.90;;;;;;4975710;28;20046;-78
2022/01/03 00:08:51;;;;;;;11.45;2.10;;;9.20;99.90;;;;;;4960412;28;20050;-78
2022/01/03 00:11:19;;;;;;;10.43;1.70;;;9.20;99.90;;;;;;4959952;28;20042;-79
2022/01/03 00:13:47;;;;;;;14.50;2.17;;;9.20;99.90;;;;;;4976732;28;20113;-78
2022/01/03 00:16:13;;;;;;;15.73;2.35;;;9.30;99.90;;;;;;4943081;28;20496;-78
2022/01/03 00:18:40;;;;;;;11.32;1.92;;;9.30;99.90;;;;;;4960013;28;20070;-79
2022/01/03 00:21:17;;;;;;;10.05;1.80;;;9.30;99.90;;;;;;4959501;28;20526;-79
2022/01/03 00:23:51;;;;;;;17.17;3.55;;;9.30;99.90;;;;;;4944931;28;20034;-78
2022/01/03 00:26:26;;;;;;;7.90;2.05;;;9.40;99.90;;;;;;4944304;28;20051;-78
2022/01/03 00:29:00;;;;;;;17.00;2.03;;;9.40;99.90;;;;;;4960506;28;20539;-78
2022/01/03 00:31:38;;;;;;;14.00;1.95;;;9.40;99.90;;;;;;4976947;28;20046;-78
2022/01/03 00:34:06;;;;;;;13.55;1.45;;;9.40;99.90;;;;;;4960688;28;20089;-78
2022/01/03 00:36:33;;;;;;;13.40;2.15;;;9.50;99.90;;;;;;4959355;28;20055;-79
2022/01/03 00:38:58;;;;;;;5.57;1.67;;;9.50;99.90;;;;;;4958704;28;20034;-78
2022/01/03 00:41:24;;;;;;;15.05;3.22;;;9.50;99.90;;;;;;4959496;28;20042;-78
2022/01/03 00:43:52;;;;;;;11.50;2.00;;;9.60;99.90;;;;;;4958921;28;20411;-78
2022/01/03 00:46:18;;;;;;;22.33;2.70;;;9.60;99.90;;;;;;4960328;28;20101;-78
2022/01/03 00:48:44;;;;;;;10.32;1.45;;;9.60;99.90;;;;;;4958797;28;20779;-78
2022/01/03 00:51:13;;;;;;;8.82;1.92;;;9.60;99.90;;;;;;4959471;28;20061;-78
2022/01/03 00:53:39;;;;;;;12.02;2.03;;;9.60;99.90;;;;;;4942806;28;20046;-79
2022/01/03 00:56:12;;;;;;;17.23;2.95;;;9.60;99.90;;;;;;4958879;28;20054;-79
2022/01/03 00:58:54;;;;;;;13.88;1.98;;;9.60;99.90;;;;;;4959495;28;20054;-79
2022/01/03 01:01:23;;;;;;;10.68;2.08;;;9.60;99.90;;;;;;4959553;28;20540;-79
2022/01/03 01:03:53;;;;;;;9.10;1.55;;;9.60;99.90;;;;;;4943381;28;20098;-79
2022/01/03 01:06:21;;;;;;;10.10;1.83;;;9.60;99.90;;;;;;4943269;28;20039;-79
2022/01/03 01:08:53;;;;;;;18.20;2.50;;;9.60;99.90;;;;;;4943008;28;20419;-78
2022/01/03 01:11:20;;;;;;;17.63;2.22;;;9.60;99.90;;;;;;4959740;28;20070;-78
2022/01/03 01:13:46;;;;;;;8.38;1.75;;;9.60;99.90;;;;;;4942305;28;20042;-80
2022/01/03 01:16:14;;;;;;;17.65;2.72;;;9.60;99.90;;;;;;4957021;28;20078;-81
2022/01/03 01:18:41;;;;;;;13.85;1.90;;;9.60;99.90;;;;;;4940917;28;20061;-81
2022/01/03 01:21:06;;;;;;;13.07;3.25;;;9.60;99.90;;;;;;4957216;28;20054;-81
2022/01/03 01:23:33;;;;;;;14.48;1.70;;;9.60;99.90;;;;;;4957280;28;20034;-81
2022/01/03 01:28:43;;;;;;;15.07;2.20;;;9.60;99.90;;;;;;4955443;28;20057;-81
2022/01/03 01:31:11;;;;;;;19.05;3.10;;;9.60;99.90;;;;;;4939761;28;20451;-81
2022/01/03 01:33:38;;;;;;;11.75;1.95;;;9.60;99.90;;;;;;4958639;28;20126;-81
2022/01/03 01:36:05;;;;;;;12.02;2.55;;;9.60;99.90;;;;;;4942993;28;20496;-81
2022/01/03 01:38:34;;;;;;;10.48;2.00;;;9.60;99.90;;;;;;4959047;28;20122;-81
2022/01/03 01:41:02;;;;;;;11.65;1.85;;;9.70;99.90;;;;;;4959230;28;20085;-81
2022/01/03 01:43:43;;;;;;;13.23;2.05;;;9.70;99.90;;;;;;4943520;28;20086;-80
2022/01/03 01:46:12;;;;;;;27.40;3.70;;;9.70;99.90;;;;;;4959086;28;20053;-81
2022/01/03 01:48:40;;;;;;;14.70;2.20;;;9.70;99.90;;;;;;4959073;28;20492;-82
2022/01/03 01:51:07;;;;;;;8.52;2.20;;;9.70;99.90;;;;;;4943431;28;20393;-81
2022/01/03 01:53:43;;;;;;;14.70;2.80;;;9.70;99.90;;;;;;4943076;28;20050;-80
2022/01/03 01:56:19;;;;;;;14.52;2.33;;;9.70;99.90;;;;;;4976179;28;20045;-81
2022/01/03 01:59:10;;;;;;;17.45;2.50;;;9.70;99.90;;;;;;4959248;28;20166;-81
2022/01/03 02:02:02;;;;;;;13.68;2.50;;;9.70;99.90;;;;;;4959236;28;20043;-81
2022/01/03 02:04:31;;;;;;;;;;;9.70;99.90;;;;;;4943544;28;20035;-81
2022/01/03 02:07:19;;;;;;;8.95;1.88;;;9.70;99.90;;;;;;4958729;28;19924;-81
2022/01/03 02:10:08;;;;;;;13.73;2.15;;;9.70;99.90;;;;;;4958896;28;20042;-81
2022/01/03 02:12:46;;;;;;;7.38;1.75;;;9.60;99.90;;;;;;4958821;28;20042;-81
2022/01/03 02:15:15;;;;;;;9.82;1.65;;;9.60;99.90;;;;;;4958566;28;20475;-81
2022/01/03 02:17:44;;;;;;;13.07;1.92;;;9.60;99.90;;;;;;4942827;28;20035;-81
2022/01/03 02:20:11;;;;;;;7.05;1.95;;;9.60;99.90;;;;;;4958612;28;20053;-81
2022/01/03 02:22:39;;;;;;;11.32;3.15;;;9.40;99.90;;;;;;4959082;28;20503;-80
2022/01/03 02:25:07;;;;;;;18.58;2.47;;;9.40;99.90;;;;;;4958977;28;20043;-80
2022/01/03 02:27:33;;;;;;;13.75;2.45;;;9.40;99.90;;;;;;4959859;28;20038;-80
2022/01/03 02:29:59;;;;;;;10.15;2.00;;;9.30;99.90;;;;;;4959508;28;20389;-81
2022/01/03 02:32:25;;;;;;;16.23;2.60;;;9.30;99.90;;;;;;4976880;28;20050;-81
2022/01/03 02:34:50;;;;;;;15.70;2.00;;;9.30;99.90;;;;;;4959302;28;20039;-80
2022/01/03 02:37:16;;;;;;;9.35;1.48;;;9.30;99.90;;;;;;4959112;28;20043;-80
2022/01/03 02:39:42;;;;;;;16.48;2.38;;;9.20;99.90;;;;;;4959208;28;20121;-80
2022/01/03 02:42:08;;;;;;;13.50;1.80;;;9.20;99.90;;;;;;4959312;28;20121;-80
2022/01/03 02:44:34;;;;;;;12.55;2.47;;;9.20;99.90;;;;;;4958826;28;20070;-81
2022/01/03 02:46:59;;;;;;;22.42;4.10;;;9.20;99.90;;;;;;4959150;28;20074;-81
2022/01/03 02:49:25;;;;;;;15.43;2.17;;;9.20;99.90;;;;;;4943201;28;20047;-81
2022/01/03 02:51:50;;;;;;;18.77;2.88;;;9.10;99.90;;;;;;4959343;28;20584;-80
2022/01/03 02:54:16;;;;;;;10.23;2.05;;;9.10;99.90;;;;;;4959885;28;20495;-80
2022/01/03 02:56:42;;;;;;;11.93;3.20;;;9.10;99.90;;;;;;4960689;28;20538;-80
2022/01/03 02:59:16;;;;;;;10.23;1.70;;;9.10;99.90;;;;;;4960714;28;20043;-81
2022/01/03 03:01:48;;;;;;;13.73;2.67;;;9.10;99.90;;;;;;4959209;28;20500;-80
2022/01/03 03:04:14;;;;;;;11.40;3.08;;;9.10;99.90;;;;;;4943322;28;20046;-80
2022/01/03 03:06:39;;;;;;;15.80;2.17;;;9.10;99.90;;;;;;4960355;28;20065;-80
2022/01/03 03:09:07;;;;;;;12.98;1.58;;;9.10;99.90;;;;;;4959551;28;20038;-79
2022/01/03 03:11:35;;;;;;;17.27;2.60;;;9.10;99.90;;;;;;4977199;28;20039;-80
2022/01/03 03:14:01;;;;;;;15.98;2.28;;;9.00;99.90;;;;;;4958765;28;20051;-80
2022/01/03 03:16:27;;;;;;;22.17;2.90;;;9.00;99.90;;;;;;4958315;28;20043;-80
2022/01/03 03:18:53;;;;;;;17.52;2.17;;;9.00;99.90;;;;;;4958733;28;20047;-80
2022/01/03 03:21:19;;;;;;;15.75;2.30;;;8.90;99.90;;;;;;4958541;28;20043;-80
2022/01/03 03:23:45;;;;;;;14.70;2.03;;;8.90;99.90;;;;;;4958600;28;20051;-80
2022/01/03 03:26:11;;;;;;;13.50;3.10;;;8.90;99.90;;;;;;4957824;28;20049;-81
2022/01/03 03:28:37;;;;;;;20.08;2.38;;;8.80;99.90;;;;;;4958272;28;20046;-80
2022/01/03 03:31:03;;;;;;;13.45;1.60;;;8.90;99.90;;;;;;4958293;28;20049;-80
2022/01/03 03:33:32;;;;;;;12.10;2.72;;;8.90;99.90;;;;;;4958864;28;20046;-80
2022/01/03 03:35:59;;;;;;;19.42;1.80;;;8.90;99.90;;;;;;4958382;28;20039;-80
2022/01/03 03:38:26;;;;;;;19.13;3.20;;;8.80;99.90;;;;;;4958789;28;20039;-80
2022/01/03 03:40:56;;;;;;;19.48;2.65;;;8.90;99.90;;;;;;4958597;28;20047;-80
2022/01/03 03:43:22;;;;;;;21.98;4.13;;;8.90;99.90;;;;;;4958383;28;20118;-80
2022/01/03 03:45:48;;;;;;;13.35;2.55;;;8.90;99.90;;;;;;4958324;28;20126;-80
2022/01/03 03:48:14;;;;;;;20.33;2.83;;;8.90;99.90;;;;;;4958575;28;20051;-80
2022/01/03 03:50:41;;;;;;;15.35;2.92;;;8.90;99.90;;;;;;4957858;28;20555;-80
2022/01/03 03:53:07;;;;;;;19.80;2.47;;;9.00;99.90;;;;;;4957996;28;20078;-80
2022/01/03 03:55:33;;;;;;;15.20;2.72;;;9.00;99.90;;;;;;4956771;28;20043;-80
2022/01/03 03:57:59;;;;;;;18.13;2.13;;;9.10;99.90;;;;;;4975382;28;20503;-80
2022/01/03 04:00:26;;;;;;;20.38;2.55;;;9.10;99.90;;;;;;4957962;28;20042;-81
2022/01/03 04:02:52;;;;;;;19.90;2.40;;;9.20;99.90;;;;;;4957950;28;20054;-81
2022/01/03 04:05:17;;;;;;;17.38;2.97;;;9.20;99.90;;;;;;4957967;28;20042;-81
2022/01/03 04:07:43;;;;;;;15.40;3.03;;;9.30;99.90;;;;;;4958133;28;20049;-80
2022/01/03 04:10:11;;;;;;;21.02;3.63;;;9.30;99.90;;;;;;4942008;28;20536;-81
2022/01/03 04:12:37;;;;;;;23.75;3.83;;;9.30;99.90;;;;;;4957917;28;20054;-80
2022/01/03 04:15:04;;;;;;;17.20;2.50;;;9.30;99.90;;;;;;4957643;28;20069;-80
2022/01/03 04:17:30;;;;;;;13.18;3.17;;;9.30;99.90;;;;;;4941949;28;20039;-80
2022/01/03 04:19:55;;;;;;;17.70;2.55;;;9.30;99.90;;;;;;4957961;28;20111;-80
2022/01/03 04:22:21;;;;;;;8.95;2.50;;;9.30;99.90;;;;;;4958071;28;20047;-80
2022/01/03 04:24:47;;;;;;;17.48;2.35;;;9.40;99.90;;;;;;4942002;28;20046;-81
2022/01/03 04:27:12;;;;;;;18.75;2.72;;;9.30;99.90;;;;;;4957724;28;20563;-80
2022/01/03 04:29:38;;;;;;;18.83;3.05;;;9.40;99.90;;;;;;4957705;28;20384;-80
2022/01/03 04:32:04;;;;;;;18.77;3.20;;;9.40;99.90;;;;;;4957771;28;20084;-81
2022/01/03 04:34:29;;;;;;;17.67;2.45;;;9.40;99.90;;;;;;4957457;28;20455;-80
2022/01/03 04:36:55;;;;;;;15.40;2.40;;;9.40;99.90;;;;;;4974593;28;20471;-81
2022/01/03 04:39:21;;;;;;;25.55;3.45;;;9.40;99.90;;;;;;4957130;28;20507;-80
2022/01/03 04:41:46;;;;;;;14.40;3.28;;;9.40;99.90;;;;;;4941496;28;20042;-80
2022/01/03 04:44:12;;;;;;;15.65;3.03;;;9.30;99.90;;;;;;4975071;28;20057;-80
2022/01/03 04:46:37;;;;;;;17.65;4.05;;;9.40;99.90;;;;;;4957276;28;20050;-80
2022/01/03 04:49:05;;;;;;;18.25;3.13;;;9.40;99.90;;;;;;4957218;28;20042;-80
2022/01/03 04:51:31;;;;;;;21.58;2.72;;;9.40;99.90;;;;;;4957660;28;20101;-80
2022/01/03 04:53:57;;;;;;;22.48;4.10;;;9.40;99.90;;;;;;4957739;28;20046;-80
2022/01/03 04:56:23;;;;;;;14.10;2.38;;;9.40;99.90;;;;;;4957171;28;20050;-80
2022/01/03 04:58:48;;;;;;;17.88;2.80;;;9.40;99.90;;;;;;4957191;28;20035;-81
2022/01/03 05:01:14;;;;;;;14.20;2.50;;;9.40;99.90;;;;;;4957413;28;20488;-80
2022/01/03 05:03:40;;;;;;;15.20;2.40;;;9.40;99.90;;;;;;4957273;28;20035;-81
2022/01/03 05:06:05;;;;;;;13.45;2.55;;;9.40;99.90;;;;;;4956736;28;20581;-80
2022/01/03 05:08:32;;;;;;;23.85;3.00;;;9.40;99.90;;;;;;4956932;28;20106;-80
2022/01/03 05:11:01;;;;;;;22.38;3.08;;;9.40;99.90;;;;;;4957366;28;20093;-80
2022/01/03 05:13:31;;;;;;;20.92;2.92;;;9.40;99.90;;;;;;4956826;28;20074;-80
2022/01/03 05:15:58;;;;;;;15.60;3.58;;;9.30;99.90;;;;;;4940649;28;20047;-80
2022/01/03 05:18:24;;;;;;;20.70;2.95;;;9.30;99.90;;;;;;4956585;28;20104;-80
2022/01/03 05:20:50;;;;;;;10.23;2.90;;;9.40;99.90;;;;;;4941075;28;20117;-80
2022/01/03 05:23:15;;;;;;;17.30;2.00;;;9.30;99.90;;;;;;4956982;28;20043;-80
2022/01/03 05:25:41;;;;;;;20.73;2.70;;;9.30;99.90;;;;;;4940688;28;20487;-80
2022/01/03 05:28:06;;;;;;;23.15;4.82;;;9.30;99.90;;;;;;4940662;28;20463;-80
2022/01/03 05:30:32;;;;;;;10.18;2.40;;;9.30;99.90;;;;;;4956882;28;20043;-80
2022/01/03 05:32:58;;;;;;;15.93;2.80;;;9.10;99.90;;;;;;4956653;28;20058;-80
2022/01/03 05:35:24;;;;;;;16.42;2.83;;;9.20;99.90;;;;;;4956573;28;20153;-80
2022/01/03 05:37:49;;;;;;;20.17;3.15;;;9.10;99.90;;;;;;4956361;28;20575;-80
2022/01/03 05:40:15;;;;;;;23.23;4.43;;;9.10;99.90;;;;;;4940545;28;20046;-80
2022/01/03 05:42:41;;;;;;;21.48;3.80;;;9.10;99.90;;;;;;4940347;28;20042;-80
2022/01/03 05:45:08;;;;;;;19.20;3.10;;;9.10;99.90;;;;;;4956380;28;20393;-81
2022/01/03 05:47:33;;;;;;;16.85;2.95;;;9.00;99.90;;;;;;4956517;28;20054;-80
2022/01/03 05:49:59;;;;;;;19.73;3.40;;;9.00;99.90;;;;;;4956253;28;20043;-80
2022/01/03 05:52:25;;;;;;;21.23;4.65;;;9.00;99.90;;;;;;4939931;28;20045;-80
2022/01/03 05:54:52;;;;;;;21.50;3.53;;;8.90;99.90;;;;;;4973292;28;20039;-80
2022/01/03 05:57:18;;;;;;;18.00;4.18;;;8.80;99.90;;;;;;4957022;28;20039;-80
2022/01/03 05:59:43;;;;;;;24.35;2.88;;;8.80;99.90;;;;;;4956173;28;20623;-80
2022/01/03 06:02:09;;;;;;;22.50;4.82;;;8.70;99.90;;;;;;4956098;28;20128;-80
2022/01/03 06:04:42;;;;;;;11.50;2.30;;;8.70;99.90;;;;;;4956506;28;20043;-81
2022/01/03 06:07:09;;;;;;;20.55;3.55;;;8.70;99.90;;;;;;4955860;28;20050;-80
2022/01/03 06:09:35;;;;;;;18.30;2.88;;;8.70;99.90;;;;;;4956106;28;20098;-80
2022/01/03 06:12:02;;;;;;;23.30;3.40;;;8.60;99.90;;;;;;4955668;28;20050;-80
2022/01/03 06:14:27;;;;;;;18.10;4.38;;;8.60;99.90;;;;;;4956077;28;20051;-81
2022/01/03 06:16:53;;;;;;;25.75;3.40;;;8.70;99.90;;;;;;4956168;28;20042;-80
2022/01/03 06:19:19;;;;;;;25.45;2.58;;;8.60;99.90;;;;;;4942214;28;20046;-80
2022/01/03 06:21:45;;;;;;;14.45;2.80;;;8.60;99.90;;;;;;4960010;28;20089;-80
2022/01/03 06:24:13;;;;;;;26.50;3.22;;;8.60;99.90;;;;;;4943205;28;20046;-81
2022/01/03 06:26:41;;;;;;;23.98;3.45;;;8.60;99.90;;;;;;4959773;28;20460;-80
2022/01/03 06:29:08;;;;;;;20.35;3.13;;;8.60;99.90;;;;;;4959359;28;20045;-81
2022/01/03 06:31:34;;;;;;;21.88;3.83;;;8.60;99.90;;;;;;4943066;28;20089;-80
2022/01/03 06:34:00;;;;;;;19.42;2.83;;;8.50;99.90;;;;;;4959004;28;20093;-81
2022/01/03 06:36:26;;;;;;;36.80;5.50;;;8.50;99.90;;;;;;4976142;28;20047;-80
2022/01/03 06:38:52;;;;;;;20.02;3.33;;;8.50;99.90;;;;;;4959062;28;20059;-80
2022/01/03 06:41:18;;;;;;;23.83;3.72;;;8.50;99.90;;;;;;4960414;28;20066;-82
2022/01/03 06:43:43;;;;;;;35.85;5.78;;;8.50;99.90;;;;;;4946139;28;20488;-81
2022/01/03 06:46:09;;;;;;;22.27;3.50;;;8.50;99.90;;;;;;4962162;28;20043;-82
2022/01/03 06:48:35;;;;;;;28.77;4.40;;;8.50;99.90;;;;;;4961987;28;20102;-82
2022/01/03 06:51:00;;;;;;;22.02;3.88;;;8.60;99.90;;;;;;4951267;28;20441;-82
2022/01/03 06:53:26;;;;;;;16.73;2.55;;;8.60;99.90;;;;;;4949734;28;20043;-83
2022/01/03 06:55:52;;;;;;;21.17;2.78;;;8.60;99.90;;;;;;4960514;28;20047;-82
2022/01/03 06:58:17;;;;;;;20.80;3.90;;;8.70;99.90;;;;;;4959617;28;20089;-83
2022/01/03 07:00:43;;;;;;;19.15;3.63;;;8.60;99.90;;;;;;4945373;28;20034;-82
2022/01/03 07:03:08;;;;;;;14.55;3.70;;;8.70;99.90;;;;;;4960834;28;20035;-81
2022/01/03 07:05:34;;;;;;;19.05;3.75;;;8.70;99.90;;;;;;4960971;28;20496;-81
2022/01/03 07:07:59;;;;;;;21.35;3.25;;;8.70;99.90;;;;;;4961771;28;20049;-82
2022/01/03 07:10:26;;;;;;;30.90;4.22;;;8.70;99.90;;;;;;4961016;28;20121;-82
2022/01/03 07:12:53;;;;;;;25.08;3.60;;;8.70;99.90;;;;;;4960539;28;20130;-82
2022/01/03 07:20:52;;;;;;;23.67;3.63;;;8.80;99.90;;;;;;4959573;28;20074;-81
2022/01/03 07:23:19;;;;;;;30.45;3.60;;;8.70;99.90;;;;;;4943388;28;20039;-81
2022/01/03 07:25:47;;;;;;;41.03;4.53;;;8.80;99.90;;;;;;4958866;28;20150;-81
2022/01/03 07:28:14;;;;;;;17.50;2.78;;;8.80;99.90;;;;;;4943429;28;20090;-81
2022/01/03 07:30:39;;;;;;;22.17;4.28;;;8.90;99.90;;;;;;4958706;28;20039;-82
2022/01/03 07:33:05;;;;;;;19.10;3.45;;;8.90;99.90;;;;;;4959368;28;20109;-82
2022/01/03 07:35:30;;;;;;;30.23;3.88;;;9.00;99.90;;;;;;4943055;28;20051;-81
2022/01/03 07:37:58;;;;;;;23.83;6.00;;;9.00;99.90;;;;;;4943144;28;20038;-82
2022/01/03 07:40:23;;;;;;;27.33;5.90;;;9.10;99.90;;;;;;4961157;28;20049;-82
2022/01/03 07:42:49;;;;;;;29.52;4.28;;;9.10;99.90;;;;;;4943656;28;20400;-82
2022/01/03 07:45:14;;;;;;;17.70;4.00;;;9.10;99.90;;;;;;4959461;28;20481;-82
2022/01/03 07:47:40;;;;;;;15.50;2.88;;;9.10;99.90;;;;;;4959148;28;20042;-82
2022/01/03 07:50:07;;;;;;;21.58;3.83;;;9.20;99.90;;;;;;4958603;28;20042;-81
2022/01/03 07:52:33;;;;;;;25.63;4.25;;;9.30;99.90;;;;;;4943716;28;20066;-82
2022/01/03 07:54:58;;;;;;;20.30;3.15;;;9.20;99.90;;;;;;4958849;28;20488;-82
2022/01/03 07:57:24;;;;;;;20.95;3.58;;;9.30;99.90;;;;;;4958098;28;20047;-82
2022/01/03 07:59:50;;;;;;;20.30;4.30;;;9.30;99.90;;;;;;4958892;28;20038;-82
2022/01/03 08:02:15;;;;;;;23.20;3.58;;;9.30;99.90;;;;;;4958631;28;20034;-82
2022/01/03 08:04:41;;;;;;;23.60;4.32;;;9.40;99.90;;;;;;4959140;28;20411;-82
2022/01/03 08:07:06;;;;;;;24.60;3.60;;;9.40;99.90;;;;;;4958780;28;20180;-84
2022/01/03 08:09:32;;;;;;;31.92;4.18;;;9.40;99.90;;;;;;4957867;28;20093;-83
2022/01/03 08:11:58;;;;;;;18.98;3.55;;;9.50;99.90;;;;;;4957964;28;20491;-84
2022/01/03 08:14:24;;;;;;;16.75;4.13;;;9.50;99.90;;;;;;4941735;28;20093;-83
2022/01/03 08:16:49;;;;;;;25.50;4.40;;;9.60;99.90;;;;;;4940740;28;20575;-83
2022/01/03 08:19:15;;;;;;;20.77;3.22;;;9.60;99.90;;;;;;4957330;28;20106;-84
2022/01/03 08:21:40;;;;;;;20.10;2.90;;;9.60;99.90;;;;;;4958303;28;20070;-83
2022/01/03 08:24:06;;;;;;;18.05;2.53;;;9.60;99.90;;;;;;4958192;28;20066;-84
2022/01/03 08:26:34;;;;;;;24.55;5.55;;;9.70;99.90;;;;;;4941113;28;20101;-84
2022/01/03 08:28:59;;;;;;;29.75;3.45;;;9.60;99.90;;;;;;4956859;28;20046;-83
2022/01/03 08:31:25;;;;;;;21.52;3.40;;;9.60;99.90;;;;;;4956813;28;20042;-83
2022/01/03 08:33:53;;;;;;;16.25;4.25;;;9.60;99.90;;;;;;4941240;28;20408;-83
2022/01/03 08:36:19;;;;;;;25.55;3.63;;;9.70;99.90;;;;;;4957094;28;20082;-84
2022/01/03 08:38:45;;;;;;;23.48;4.85;;;9.70;99.90;;;;;;4940636;28;20121;-83
2022/01/03 08:41:11;;;;;;;20.30;3.42;;;9.70;99.90;;;;;;4956661;28;20077;-83
2022/01/03 08:43:37;;;;;;;20.88;3.25;;;9.70;99.90;;;;;;4942021;28;20066;-83
2022/01/03 08:46:03;;;;;;;22.98;4.10;;;9.70;99.90;;;;;;4958204;28;20130;-83
2022/01/03 08:48:28;;;;;;;18.75;3.03;;;9.70;99.90;;;;;;4956531;28;20129;-84
2022/01/03 08:50:55;;;;;;;20.85;3.53;;;9.70;99.90;;;;;;4957193;28;20039;-83
2022/01/03 08:53:25;;;;;;;24.30;3.78;;;9.70;99.90;;;;;;4957880;28;20065;-83
2022/01/03 08:55:51;;;;;;;32.47;4.55;;;9.70;99.90;;;;;;4958642;28;20496;-83
2022/01/03 08:58:18;;;;;;;16.48;2.55;;;9.70;99.90;;;;;;4957945;28;20043;-83
2022/01/03 09:00:44;;;;;;;15.38;2.65;;;9.80;99.90;;;;;;4957920;28;20038;-83
2022/01/03 09:03:10;;;;;;;23.77;3.83;;;9.80;99.90;;;;;;4957452;28;20047;-83
2022/01/03 09:05:36;;;;;;;24.15;3.80;;;9.80;99.90;;;;;;4956562;28;20478;-84
2022/01/03 09:08:02;;;;;;;32.65;4.88;;;9.80;99.90;;;;;;4956305;28;20079;-83
2022/01/03 09:10:28;;;;;;;22.45;3.63;;;9.90;99.90;;;;;;4956678;28;20047;-83
2022/01/03 09:12:53;;;;;;;20.90;2.80;;;9.90;99.90;;;;;;4940878;28;20069;-84
2022/01/03 09:15:19;;;;;;;22.00;4.78;;;9.90;99.90;;;;;;4940619;28;20043;-83
2022/01/03 09:17:45;;;;;;;23.70;3.20;;;10.00;99.90;;;;;;4956491;28;20046;-84
2022/01/03 09:20:10;;;;;;;25.20;5.13;;;10.00;99.90;;;;;;4939804;28;20415;-84
2022/01/03 09:22:41;;;;;;;21.33;3.45;;;10.00;99.90;;;;;;4940216;28;20035;-83
2022/01/03 09:30:18;;;;;;;21.25;3.58;;;10.10;99.90;;;;;;4955757;28;20066;-84
2022/01/03 09:32:44;;;;;;;18.48;2.78;;;10.10;99.90;;;;;;4940583;28;20043;-83
2022/01/03 09:35:10;;;;;;;23.33;3.28;;;10.10;99.90;;;;;;4939796;28;20034;-83
2022/01/03 09:37:36;;;;;;;21.73;3.33;;;10.20;99.90;;;;;;4940482;28;20041;-83
2022/01/03 09:40:04;;;;;;;18.17;3.00;;;10.20;99.90;;;;;;4940232;28;20575;-83
2022/01/03 09:42:33;;;;;;;19.90;3.70;;;10.30;99.90;;;;;;4940610;28;20043;-83
2022/01/03 09:45:04;;;;;;;17.05;3.45;;;10.30;99.90;;;;;;4940402;28;20043;-84
2022/01/03 09:47:31;;;;;;;23.48;3.50;;;10.30;99.90;;;;;;4956255;28;20046;-83
2022/01/03 09:49:58;;;;;;;18.70;3.22;;;10.30;99.90;;;;;;4955988;28;20090;-84
2022/01/03 09:52:26;;;;;;;10.90;2.13;;;10.30;99.90;;;;;;4940021;28;20042;-83
2022/01/03 09:54:54;;;;;;;20.13;3.75;;;10.30;99.90;;;;;;4943479;28;20045;-83
2022/01/03 09:57:21;;;;;;;18.27;2.90;;;10.30;99.90;;;;;;4943410;28;20043;-83
2022/01/03 09:59:47;;;;;;;25.40;2.97;;;10.30;99.90;;;;;;4959341;28;20045;-83
2022/01/03 10:02:16;;;;;;;24.90;4.75;;;10.30;99.90;;;;;;4959776;28;20039;-83
2022/01/03 10:04:42;;;;;;;23.13;4.75;;;10.40;99.90;;;;;;4943236;28;20630;-84
2022/01/03 10:07:14;;;;;;;17.27;3.35;;;10.50;99.90;;;;;;4943221;28;20125;-83
2022/01/03 10:09:40;;;;;;;18.23;2.42;;;10.50;99.90;;;;;;4943649;28;20049;-84
2022/01/03 10:12:09;;;;;;;20.40;3.10;;;10.50;99.90;;;;;;4944242;28;20101;-81
2022/01/03 10:14:34;;;;;;;21.30;3.88;;;10.50;99.90;;;;;;4959713;28;20129;-81
2022/01/03 10:17:00;;;;;;;22.30;3.50;;;10.40;99.90;;;;;;4959398;28;20129;-82
2022/01/03 10:19:26;;;;;;;18.67;3.83;;;10.40;99.90;;;;;;4959906;28;20532;-81
2022/01/03 10:21:51;;;;;;;19.63;2.50;;;10.40;99.90;;;;;;4959263;28;20042;-81
2022/01/03 10:24:19;;;;;;;18.35;2.67;;;10.40;99.90;;;;;;4959848;28;20039;-80
2022/01/03 10:26:52;;;;;;;17.70;3.28;;;10.30;99.90;;;;;;4943664;28;20046;-81
2022/01/03 10:29:20;;;;;;;18.00;2.88;;;10.40;99.90;;;;;;4958890;28;20038;-82
2022/01/03 10:31:52;;;;;;;20.15;3.28;;;10.40;99.90;;;;;;4959447;28;20038;-80
2022/01/03 10:34:19;;;;;;;17.52;3.10;;;10.40;99.90;;;;;;4944270;28;20058;-81
2022/01/03 10:36:47;;;;;;;20.38;3.17;;;10.40;99.90;;;;;;4959585;28;20047;-81
2022/01/03 10:39:22;;;;;;;14.80;2.22;;;10.50;99.90;;;;;;4977052;28;20058;-80
2022/01/03 10:42:10;;;;;;;16.30;3.67;;;10.50;99.90;;;;;;4976832;28;20496;-81
2022/01/03 10:44:38;;;;;;;23.00;3.20;;;10.50;99.90;;;;;;4930682;28;20115;-81
2022/01/03 10:47:09;;;;;;;15.55;3.20;;;10.50;99.90;;;;;;4959161;28;20042;-81
2022/01/03 10:49:37;;;;;;;23.53;4.20;;;10.60;99.90;;;;;;4959634;28;20063;-83
2022/01/03 10:52:24;;;;;;;15.80;3.20;;;10.60;99.90;;;;;;4959833;28;20455;-82
2022/01/03 10:55:16;;;;;;;29.20;5.72;;;10.60;99.90;;;;;;4960144;28;20035;-81
2022/01/03 10:58:01;;;;;;;19.92;3.92;;;10.60;99.90;;;;;;4960329;28;20470;-81
2022/01/03 11:00:41;;;;;;;18.90;3.15;;;10.50;99.90;;;;;;4959452;28;20050;-82
2022/01/03 11:05:51;;;;;;;16.65;2.70;;;10.50;99.90;;;;;;4958168;28;20046;-81
2022/01/03 11:11:02;;;;;;;20.42;4.25;;;10.40;99.90;;;;;;4958813;28;20131;-81
2022/01/03 11:13:28;;;;;;;26.00;3.17;;;10.40;99.90;;;;;;4959026;28;20051;-80
2022/01/03 11:16:05;;;;;;;20.33;3.17;;;10.30;99.90;;;;;;4959101;28;20483;-80
2022/01/03 11:18:33;;;;;;;24.70;4.78;;;10.30;99.90;;;;;;4958632;28;20085;-81
2022/01/03 11:21:18;;;;;;;16.67;3.35;;;10.40;99.90;;;;;;4959240;28;20051;-81
2022/01/03 11:23:47;;;;;;;14.48;3.00;;;10.40;99.90;;;;;;4958736;28;20068;-82
2022/01/03 11:26:15;;;;;;;24.10;2.65;;;10.50;99.90;;;;;;4958440;28;20563;-80
2022/01/03 11:28:43;;;;;;;14.85;2.70;;;10.40;99.90;;;;;;4958862;28;20054;-81
2022/01/03 11:31:13;;;;;;;21.10;3.00;;;10.40;99.90;;;;;;4958204;28;20051;-77
2022/01/03 11:33:40;;;;;;;21.30;3.58;;;10.40;99.90;;;;;;4957842;28;20499;-80
2022/01/03 11:36:06;;;;;;;33.58;6.55;;;10.40;99.90;;;;;;4957548;28;20053;-80
2022/01/03 11:38:36;;;;;;;26.00;4.28;;;10.30;99.90;;;;;;4958080;28;20053;-78
2022/01/03 11:41:05;;;;;;;14.88;2.60;;;10.40;99.90;;;;;;4957580;28;20035;-80
2022/01/03 11:43:33;;;;;;;21.25;3.63;;;10.50;99.90;;;;;;4957500;28;20039;-79
2022/01/03 11:45:59;;;;;;;13.60;2.38;;;10.50;99.90;;;;;;4976134;28;20039;-80
2022/01/03 11:48:26;;;;;;;18.48;2.92;;;10.60;99.90;;;;;;4958815;28;20122;-80
2022/01/03 11:50:54;;;;;;;29.92;4.07;;;10.70;99.90;;;;;;4957456;28;20050;-80
2022/01/03 11:53:22;;;;;;;15.35;3.28;;;10.80;99.90;;;;;;4957806;28;20050;-80
2022/01/03 11:55:56;;;;;;;16.02;2.50;;;10.90;99.90;;;;;;4957183;28;20316;-80
2022/01/03 11:58:43;;;;;;;25.83;3.72;;;10.90;99.90;;;;;;4957150;28;20101;-80
2022/01/03 12:03:54;;;;;;;26.92;3.97;;;11.00;99.90;;;;;;4957763;28;20053;-81
2022/01/03 12:06:29;;;;;;;21.30;3.85;;;11.00;99.90;;;;;;4957436;28;20051;-80
2022/01/03 12:09:02;;;;;;;26.35;3.92;;;11.00;99.90;;;;;;4957179;28;20043;-81
2022/01/03 12:11:29;;;;;;;27.58;4.53;;;11.00;99.90;;;;;;4957760;28;20050;-81
2022/01/03 12:13:56;;;;;;;11.98;3.00;;;10.90;99.90;;;;;;4957290;28;20046;-81
2022/01/03 12:17:02;;;;;;;20.70;2.92;;;10.90;99.90;;;;;;4956055;28;20051;-81
2022/01/03 12:19:34;;;;;;;13.27;2.42;;;11.00;99.90;;;;;;4957340;28;20057;-81
2022/01/03 12:22:00;;;;;;;20.38;2.58;;;11.00;99.90;;;;;;4957113;28;20035;-80
2022/01/03 12:24:26;;;;;;;10.90;2.78;;;11.00;99.90;;;;;;4957012;28;20038;-80
2022/01/03 12:27:10;;;;;;;25.27;3.17;;;10.90;99.90;;;;;;4957212;28;20399;-81
2022/01/03 12:29:56;;;;;;;18.08;3.10;;;10.90;99.90;;;;;;4956776;28;20440;-80
2022/01/03 12:32:32;;;;;;;21.10;2.83;;;10.90;99.90;;;;;;4956684;28;20054;-80
2022/01/03 12:35:23;;;;;;;13.05;2.88;;;11.00;99.90;;;;;;4956659;28;20174;-82
2022/01/03 12:37:54;;;;;;;17.20;3.03;;;11.00;99.90;;;;;;4957346;28;20520;-80
2022/01/03 12:40:31;;;;;;;16.08;3.25;;;11.10;99.90;;;;;;4957220;28;20065;-80
2022/01/03 12:42:57;;;;;;;16.77;2.65;;;11.00;99.90;;;;;;4973924;28;20109;-78
2022/01/03 12:45:28;;;;;;;11.70;2.42;;;11.00;99.90;;;;;;4955754;28;20113;-77
2022/01/03 12:47:54;;;;;;;18.67;3.17;;;11.00;99.90;;;;;;4956058;28;20126;-77
2022/01/03 12:50:29;;;;;;;19.45;3.17;;;11.00;99.90;;;;;;4956216;28;20038;-77
2022/01/03 12:52:59;;;;;;;18.77;3.58;;;11.00;99.90;;;;;;4956035;28;20114;-78
2022/01/03 12:55:37;;;;;;;19.58;2.55;;;10.90;99.90;;;;;;4955733;28;20491;-77
2022/01/03 12:58:16;;;;;;;18.73;2.78;;;10.90;99.90;;;;;;4955678;28;20074;-77
2022/01/03 13:00:55;;;;;;;17.42;2.28;;;10.90;99.90;;;;;;4955973;28;20049;-77
2022/01/03 13:03:21;;;;;;;16.88;3.47;;;10.90;99.90;;;;;;4955683;28;20043;-77
2022/01/03 13:06:05;;;;;;;15.52;3.28;;;10.90;99.90;;;;;;4955529;28;20101;-77
2022/01/03 13:08:41;;;;;;;21.92;3.45;;;10.90;99.90;;;;;;4955689;28;20055;-77
2022/01/03 13:11:10;;;;;;;22.63;3.58;;;10.90;99.90;;;;;;4939717;28;20046;-77
2022/01/03 13:13:37;;;;;;;18.30;3.40;;;10.80;99.90;;;;;;4955748;28;20118;-77